Main page
METAR-TAF:

METAR-TAF

Airports :

Rugby Municipal Airport

Rugby, North Dakota, United States

latitude: 48-23-25N, longitude: 100-01-27W, elevation: 472 m

Current weather observation

The report was made 27 minutes ago, at 16:55 UTC
Wind 9 kt from the North/Northwest
Temperature 15°C
Humidity 31%
Pressure 1023 hPa
Visibility: 16.1 km
Few clouds at a height of 7000 ft

METAR: KRUG 221655Z AUTO 34009KT 10SM FEW070 15/M02 A3022 RMK AO2

Time: 12:22 (17:22 UTC)


TAF: missing

Weather observations and forecasts of more than 4000 airports (METAR and TAF reports).

The available stations are represented by yellow and red dots on the map.

Hover mouse over dot to see the name of the station.

Then click to see weather observations and forecasts.

To change the map : click on the green buttons with a black cross to zoom in, on the green button with a dash to zoom out, or on the green arrows for adjacent maps.


METAR-TAF: